createdAt,value
2018-03-17T00:00:20.426Z,77.00
2018-03-17T00:02:49.919Z,77.40
2018-03-17T00:05:19.522Z,77.80
2018-03-17T00:07:48.767Z,78.70
2018-03-17T00:10:18.117Z,79.40
2018-03-17T00:12:47.433Z,79.60
2018-03-17T00:15:16.830Z,80.20
2018-03-17T00:17:46.073Z,80.00
2018-03-17T00:20:15.523Z,80.50
2018-03-17T00:22:44.859Z,81.10
2018-03-17T00:25:14.108Z,82.10
2018-03-17T00:27:43.507Z,83.20
2018-03-17T00:30:12.882Z,83.90
2018-03-17T00:32:42.229Z,84.30
2018-03-17T00:35:11.582Z,84.30
2018-03-17T00:37:40.930Z,84.50
2018-03-17T00:40:10.240Z,85.40
2018-03-17T00:42:39.758Z,85.60
2018-03-17T00:45:09.098Z,86.20
2018-03-17T00:47:38.347Z,86.50
2018-03-17T00:50:07.806Z,87.30
2018-03-17T00:52:37.055Z,87.40
2018-03-17T00:58:28.192Z,87.50
2018-03-17T01:00:57.537Z,88.10
2018-03-17T01:03:26.769Z,88.40
2018-03-17T01:05:56.202Z,88.80
2018-03-17T01:09:00.266Z,89.20
2018-03-17T01:11:29.747Z,90.00
2018-03-17T01:13:59.229Z,90.30
2018-03-17T01:16:29.516Z,90.50
2018-03-17T01:18:58.991Z,90.40
2018-03-17T01:21:28.493Z,90.30
2018-03-17T01:23:57.962Z,90.10
2018-03-17T01:26:31.826Z,90.40
2018-03-17T01:29:01.883Z,90.00
2018-03-17T01:31:32.370Z,90.10
2018-03-17T01:34:02.130Z,90.10
2018-03-17T01:36:32.393Z,90.10
2018-03-17T01:39:01.684Z,90.10
2018-03-17T01:41:31.070Z,90.10
2018-03-17T01:44:01.746Z,90.50
2018-03-17T01:46:31.328Z,90.50
2018-03-17T01:49:01.665Z,90.30
2018-03-17T01:51:32.324Z,90.90
2018-03-17T01:54:12.937Z,90.60
2018-03-17T01:56:42.362Z,90.80
2018-03-17T01:59:11.698Z,90.10
2018-03-17T02:01:41.160Z,90.10
2018-03-17T02:04:10.573Z,90.10
2018-03-17T02:06:40.502Z,90.40
2018-03-17T02:09:11.318Z,90.80
2018-03-17T02:11:40.769Z,91.10
2018-03-17T02:14:10.650Z,91.50
2018-03-17T02:16:40.044Z,91.10
2018-03-17T02:19:09.478Z,91.00
2018-03-17T02:21:38.821Z,91.00
2018-03-17T02:24:08.320Z,90.40
2018-03-17T02:26:37.900Z,90.70
2018-03-17T02:29:07.237Z,91.20
2018-03-17T02:31:39.943Z,91.40
2018-03-17T02:34:09.443Z,91.30
2018-03-17T02:36:38.881Z,90.80
2018-03-17T02:39:08.294Z,91.00
2018-03-17T02:44:59.574Z,86.40
2018-03-17T02:47:28.992Z,86.40
2018-03-17T02:49:58.372Z,86.70
2018-03-17T02:52:27.898Z,86.90
2018-03-17T02:54:57.188Z,87.10
2018-03-17T02:57:26.608Z,87.30
2018-03-17T02:59:56.006Z,87.50
2018-03-17T03:02:26.184Z,88.30
2018-03-17T03:04:56.311Z,88.80
2018-03-17T03:07:26.888Z,88.70
2018-03-17T03:09:56.319Z,89.20
2018-03-17T03:12:25.691Z,89.60
2018-03-17T03:14:55.154Z,89.90
2018-03-17T03:17:26.420Z,90.00
2018-03-17T03:19:55.844Z,90.00
2018-03-17T03:22:25.350Z,90.00
2018-03-17T03:24:55.564Z,90.20
2018-03-17T03:27:25.527Z,90.50
2018-03-17T03:29:55.014Z,90.70
2018-03-17T03:35:55.810Z,90.90
2018-03-17T03:38:25.426Z,90.90
2018-03-17T03:40:55.046Z,90.90
2018-03-17T03:43:24.471Z,91.10
2018-03-17T03:45:54.503Z,91.10
2018-03-17T03:48:24.449Z,91.10
2018-03-17T03:50:54.300Z,91.10
2018-03-17T03:53:23.979Z,91.10
2018-03-17T03:55:53.210Z,90.90
2018-03-17T03:58:22.754Z,90.90
2018-03-17T04:04:14.387Z,91.10
2018-03-17T04:06:47.543Z,91.00
2018-03-17T04:09:21.780Z,91.50
2018-03-17T04:11:52.445Z,91.40
2018-03-17T04:14:26.076Z,91.50
2018-03-17T04:16:57.021Z,91.60
2018-03-17T04:19:28.207Z,91.80
2018-03-17T04:22:04.441Z,91.80
2018-03-17T04:24:34.874Z,91.90
2018-03-17T04:27:05.348Z,92.10
2018-03-17T04:29:35.429Z,92.30
2018-03-17T04:32:04.860Z,92.50
2018-03-17T04:34:34.935Z,92.60
2018-03-17T04:37:04.361Z,92.80
2018-03-17T04:39:34.866Z,93.00
2018-03-17T04:42:05.398Z,93.30
2018-03-17T04:44:37.075Z,93.30
2018-03-17T04:47:06.775Z,93.10
2018-03-17T04:49:36.772Z,93.20
2018-03-17T04:52:06.291Z,93.40
2018-03-17T04:54:36.168Z,93.70
2018-03-17T04:57:06.497Z,94.10
2018-03-17T04:59:36.474Z,94.50
2018-03-17T05:02:06.530Z,94.60
2018-03-17T05:04:36.376Z,94.80
2018-03-17T05:07:05.968Z,95.00
2018-03-17T05:09:35.695Z,95.10
2018-03-17T05:12:05.302Z,95.30
2018-03-17T05:14:37.972Z,95.30
2018-03-17T05:17:09.410Z,95.40
2018-03-17T05:19:38.951Z,95.30
2018-03-17T05:22:08.406Z,95.30
2018-03-17T05:25:21.781Z,95.40
2018-03-17T05:27:51.281Z,95.40
2018-03-17T05:30:20.860Z,95.50
2018-03-17T05:32:50.451Z,95.60
2018-03-17T05:35:20.220Z,95.70
2018-03-17T05:37:50.796Z,96.20
2018-03-17T05:43:41.318Z,96.20
2018-03-17T05:47:01.642Z,96.20
2018-03-17T05:49:31.078Z,96.20
2018-03-17T05:52:00.950Z,96.30
2018-03-17T05:54:30.706Z,96.40
2018-03-17T05:57:00.225Z,96.50
2018-03-17T05:59:29.596Z,96.50
2018-03-17T06:01:59.040Z,96.60
2018-03-17T06:04:28.408Z,96.60
2018-03-17T06:06:57.792Z,96.80
2018-03-17T06:09:27.282Z,96.80
2018-03-17T06:12:23.396Z,96.80
2018-03-17T06:14:52.906Z,96.60
2018-03-17T06:17:22.590Z,96.70
2018-03-17T06:19:52.178Z,96.40
2018-03-17T06:22:21.878Z,96.40
2018-03-17T06:24:51.289Z,96.20
2018-03-17T06:27:21.536Z,95.80
2018-03-17T06:29:50.954Z,95.80
2018-03-17T06:35:51.726Z,95.40
2018-03-17T06:38:21.375Z,95.10
2018-03-17T06:40:50.750Z,95.00
2018-03-17T06:43:20.469Z,95.00
2018-03-17T06:45:49.804Z,95.00
2018-03-17T06:48:19.218Z,95.10
2018-03-17T06:50:48.575Z,95.00
2018-03-17T06:53:17.985Z,95.10
2018-03-17T06:55:48.098Z,95.10
2018-03-17T07:01:38.994Z,95.10
2018-03-17T07:04:08.855Z,95.20
2018-03-17T07:06:38.802Z,95.40
2018-03-17T07:09:08.271Z,95.40
2018-03-17T07:14:59.034Z,95.10
2018-03-17T07:17:28.653Z,94.90
2018-03-17T07:19:58.245Z,94.70
2018-03-17T07:22:27.820Z,94.70
2018-03-17T07:24:57.300Z,94.90
2018-03-17T07:27:26.825Z,95.10
2018-03-17T07:29:56.312Z,95.30
2018-03-17T07:35:47.171Z,95.50
2018-03-17T07:38:17.599Z,95.70
2018-03-17T07:40:47.282Z,95.60
2018-03-17T07:43:17.004Z,95.60
2018-03-17T07:45:46.572Z,95.50
2018-03-17T07:48:16.301Z,95.50
2018-03-17T07:50:45.988Z,95.60
2018-03-17T07:53:15.566Z,95.60
2018-03-17T07:55:46.069Z,95.50
2018-03-17T07:58:15.737Z,95.50
2018-03-17T08:00:45.342Z,95.50
2018-03-17T08:03:15.047Z,95.50
2018-03-17T08:05:44.609Z,95.60
2018-03-17T08:08:14.392Z,95.70
2018-03-17T08:10:44.165Z,95.80
2018-03-17T08:13:13.836Z,96.20
2018-03-17T08:15:43.403Z,96.30
2018-03-17T08:18:13.323Z,96.40
2018-03-17T08:20:42.880Z,96.50
2018-03-17T08:23:13.337Z,96.60
2018-03-17T08:25:42.916Z,96.60
2018-03-17T08:28:13.372Z,97.00
2018-03-17T08:30:42.988Z,97.00
2018-03-17T08:33:13.359Z,97.40
2018-03-17T08:35:42.996Z,97.40
2018-03-17T08:38:13.361Z,97.70
2018-03-17T08:40:43.015Z,97.70
2018-03-17T08:43:12.577Z,97.80
2018-03-17T08:45:42.269Z,97.90
2018-03-17T08:48:11.841Z,98.10
2018-03-17T08:50:41.499Z,98.20
2018-03-17T08:53:11.141Z,98.20
2018-03-17T08:55:40.806Z,98.20
2018-03-17T08:58:10.366Z,98.20
2018-03-17T09:00:40.053Z,98.20
2018-03-17T09:03:09.581Z,98.30
2018-03-17T09:05:39.234Z,98.30
2018-03-17T09:08:08.865Z,98.00
2018-03-17T09:10:38.529Z,97.80
2018-03-17T09:13:08.910Z,97.60
2018-03-17T09:15:38.558Z,97.60
2018-03-17T09:18:08.983Z,97.60
2018-03-17T09:20:38.691Z,97.60
2018-03-17T09:23:08.399Z,97.70
2018-03-17T09:25:38.027Z,97.60
2018-03-17T09:28:07.690Z,97.70
2018-03-17T09:30:37.229Z,97.80
2018-03-17T09:33:06.945Z,97.60
2018-03-17T09:35:37.280Z,97.40
2018-03-17T09:38:07.042Z,97.30
2018-03-17T09:40:36.622Z,97.20
2018-03-17T09:43:06.324Z,97.20
2018-03-17T09:45:35.922Z,97.20
2018-03-17T09:48:05.557Z,97.40
2018-03-17T09:50:35.114Z,97.70
2018-03-17T09:53:04.852Z,97.80
2018-03-17T09:55:34.740Z,97.70
2018-03-17T09:58:04.401Z,97.80
2018-03-17T10:00:34.482Z,98.00
2018-03-17T10:06:32.466Z,97.60
2018-03-17T10:09:02.545Z,97.50
2018-03-17T10:11:31.895Z,97.50
2018-03-17T10:14:01.947Z,97.70
2018-03-17T10:16:31.233Z,97.70
2018-03-17T10:19:01.030Z,97.60
2018-03-17T10:21:31.067Z,97.50
2018-03-17T10:24:00.498Z,97.50
2018-03-17T10:26:29.873Z,97.50
2018-03-17T10:28:59.178Z,97.40
2018-03-17T10:31:30.187Z,97.20
2018-03-17T10:34:00.329Z,97.20
2018-03-17T10:36:29.612Z,97.20
2018-03-17T10:38:59.766Z,97.50
2018-03-17T10:41:29.783Z,97.40
2018-03-17T10:43:59.081Z,97.60
2018-03-17T10:46:28.428Z,97.50
2018-03-17T10:48:57.707Z,97.50
2018-03-17T10:51:27.066Z,97.60
2018-03-17T10:53:56.489Z,97.70
2018-03-17T10:56:25.753Z,97.70
2018-03-17T10:58:56.158Z,97.50
2018-03-17T11:01:28.022Z,97.50
2018-03-17T11:03:57.330Z,97.50
2018-03-17T11:06:26.597Z,97.60
2018-03-17T11:08:55.858Z,97.60
2018-03-17T11:11:25.217Z,97.40
2018-03-17T11:13:55.839Z,97.50
2018-03-17T11:16:25.314Z,97.70
2018-03-17T11:18:56.566Z,97.60
2018-03-17T11:21:25.887Z,97.70
2018-03-17T11:23:55.194Z,97.90
2018-03-17T11:26:24.510Z,98.00
2018-03-17T11:28:53.860Z,98.70
2018-03-17T11:31:23.131Z,98.80
2018-03-17T11:33:53.225Z,99.90
2018-03-17T11:36:22.565Z,99.80
2018-03-17T11:38:52.617Z,99.90
2018-03-17T11:41:22.099Z,99.90
2018-03-17T11:43:51.409Z,99.90
2018-03-17T11:46:20.678Z,99.90
2018-03-17T11:48:50.058Z,99.90
2018-03-17T11:51:19.326Z,99.90
2018-03-17T11:54:27.904Z,99.90
2018-03-17T11:56:57.239Z,99.90
2018-03-17T11:59:26.565Z,99.90
2018-03-17T12:01:56.752Z,99.90
2018-03-17T12:04:26.176Z,99.90
2018-03-17T12:06:55.657Z,99.90
2018-03-17T12:09:25.122Z,99.90
2018-03-17T12:11:55.024Z,99.90
2018-03-17T12:14:24.449Z,99.90
2018-03-17T12:16:57.138Z,99.90
2018-03-17T12:19:27.401Z,99.90
2018-03-17T12:21:57.204Z,99.90
2018-03-17T12:24:26.597Z,99.90
2018-03-17T12:26:56.021Z,99.90
2018-03-17T12:29:25.398Z,99.90
2018-03-17T12:31:54.725Z,99.90
2018-03-17T12:34:24.098Z,99.90
2018-03-17T12:36:53.513Z,99.90
2018-03-17T12:39:22.836Z,99.90
2018-03-17T12:41:52.212Z,99.90
2018-03-17T12:44:21.623Z,99.90
2018-03-17T12:46:51.024Z,99.90
2018-03-17T12:49:20.539Z,99.90
2018-03-17T12:51:50.101Z,99.90
2018-03-17T12:54:19.422Z,99.90
2018-03-17T12:56:48.755Z,99.90
2018-03-17T12:59:18.594Z,99.80
2018-03-17T13:01:47.899Z,99.60
2018-03-17T13:04:17.220Z,99.40
2018-03-17T13:06:46.576Z,98.90
2018-03-17T13:09:15.946Z,98.50
2018-03-17T13:11:45.294Z,98.30
2018-03-17T13:14:15.503Z,96.40
2018-03-17T13:16:44.809Z,96.30
2018-03-17T13:19:25.626Z,94.90
2018-03-17T13:21:55.031Z,93.80
2018-03-17T13:24:24.365Z,92.60
2018-03-17T13:27:05.582Z,91.70
2018-03-17T13:29:34.938Z,90.80
2018-03-17T13:35:30.995Z,90.80
2018-03-17T13:38:01.171Z,91.50
2018-03-17T13:40:44.294Z,91.60
2018-03-17T13:43:14.214Z,92.00
2018-03-17T13:45:44.339Z,91.50
2018-03-17T13:48:14.394Z,91.00
2018-03-17T13:50:43.796Z,91.00
2018-03-17T13:53:13.731Z,90.90
2018-03-17T13:55:43.889Z,89.60
2018-03-17T13:58:13.215Z,89.60
2018-03-17T14:00:42.570Z,88.80
2018-03-17T14:03:11.963Z,86.70
2018-03-17T14:05:41.463Z,85.10
2018-03-17T14:08:10.790Z,85.40
2018-03-17T14:10:40.174Z,85.60
2018-03-17T14:13:09.559Z,85.90
2018-03-17T14:15:38.883Z,87.30
2018-03-17T14:18:08.267Z,87.20
2018-03-17T14:20:38.347Z,87.20
2018-03-17T14:23:08.209Z,87.10
2018-03-17T14:25:38.374Z,87.10
2018-03-17T14:28:07.683Z,87.00
2018-03-17T14:30:37.116Z,87.90
2018-03-17T14:33:06.542Z,88.70
2018-03-17T14:35:35.848Z,88.90
2018-03-17T14:38:05.188Z,88.90
2018-03-17T14:40:34.513Z,88.90
2018-03-17T14:43:03.821Z,89.10
2018-03-17T14:45:33.143Z,89.00
2018-03-17T14:48:02.487Z,87.80
2018-03-17T14:50:31.770Z,85.80
2018-03-17T14:53:01.049Z,84.50
2018-03-17T14:56:08.953Z,83.50
2018-03-17T14:58:38.462Z,83.50
2018-03-17T15:01:07.808Z,82.80
2018-03-17T15:03:38.176Z,81.50
2018-03-17T15:06:07.703Z,80.20
2018-03-17T15:08:37.892Z,77.90
2018-03-17T15:11:07.249Z,77.90
2018-03-17T15:13:38.974Z,76.00
2018-03-17T15:16:09.015Z,74.40
2018-03-17T15:18:41.225Z,74.30
2018-03-17T15:21:10.883Z,75.60
2018-03-17T15:23:42.927Z,77.80
2018-03-17T15:26:20.343Z,77.80
2018-03-17T15:28:51.070Z,79.40
2018-03-17T15:31:20.435Z,79.40
2018-03-17T15:33:49.849Z,78.20
2018-03-17T15:36:19.373Z,76.40
2018-03-17T15:38:48.866Z,74.00
2018-03-17T15:41:18.240Z,71.00
2018-03-17T15:43:47.767Z,70.20
2018-03-17T15:46:17.283Z,69.00
2018-03-17T15:48:46.684Z,68.80
2018-03-17T15:51:16.135Z,67.40
2018-03-17T15:53:45.609Z,67.80
2018-03-17T15:56:14.915Z,66.40
2018-03-17T15:58:44.660Z,65.40
2018-03-17T16:01:14.009Z,64.80
2018-03-17T16:03:43.468Z,64.90
2018-03-17T16:06:12.901Z,64.80
2018-03-17T16:08:42.448Z,64.20
2018-03-17T16:11:11.770Z,66.20
2018-03-17T16:13:41.199Z,66.60
2018-03-17T16:16:10.898Z,66.00
2018-03-17T16:18:40.235Z,65.50
2018-03-17T16:21:10.656Z,63.70
2018-03-17T16:23:40.831Z,60.60
2018-03-17T16:26:10.372Z,60.20
2018-03-17T16:28:40.572Z,59.00
2018-03-17T16:31:10.026Z,58.90
2018-03-17T16:33:39.334Z,59.30
2018-03-17T16:36:08.756Z,68.80
2018-03-17T16:38:38.179Z,66.60
2018-03-17T16:41:07.646Z,64.30
2018-03-17T16:43:36.923Z,62.50
2018-03-17T16:46:06.480Z,60.90
2018-03-17T16:48:35.772Z,59.80
2018-03-17T16:51:05.186Z,58.60
2018-03-17T16:53:34.702Z,58.50
2018-03-17T16:56:04.143Z,58.50
2018-03-17T16:58:34.013Z,59.50
2018-03-17T17:01:03.316Z,57.90
2018-03-17T17:03:32.783Z,57.00
2018-03-17T17:06:02.146Z,57.30
2018-03-17T17:08:31.512Z,57.80
2018-03-17T17:11:00.807Z,58.50
2018-03-17T17:13:31.355Z,59.00
2018-03-17T17:16:01.880Z,59.30
2018-03-17T17:18:31.538Z,57.40
2018-03-17T17:21:00.852Z,56.50
2018-03-17T17:23:30.231Z,55.70
2018-03-17T17:25:59.759Z,55.00
2018-03-17T17:28:29.057Z,54.90
2018-03-17T17:30:58.457Z,54.00
2018-03-17T17:33:27.781Z,54.30
2018-03-17T17:35:57.144Z,52.90
2018-03-17T17:38:26.460Z,52.60
2018-03-17T17:40:55.930Z,52.50
2018-03-17T17:43:25.294Z,52.10
2018-03-17T17:45:54.690Z,50.80
2018-03-17T17:48:24.251Z,47.90
2018-03-17T17:50:54.458Z,47.80
2018-03-17T17:53:23.943Z,47.70
2018-03-17T17:55:53.263Z,48.30
2018-03-17T18:01:54.887Z,42.70
2018-03-17T18:04:24.313Z,41.70
2018-03-17T18:06:54.056Z,41.70
2018-03-17T18:09:24.303Z,41.00
2018-03-17T18:11:53.941Z,40.90
2018-03-17T18:14:23.368Z,40.80
2018-03-17T18:16:52.963Z,39.00
2018-03-17T18:19:22.913Z,41.10
2018-03-17T18:21:52.439Z,41.40
2018-03-17T18:24:25.475Z,39.20
2018-03-17T18:26:55.075Z,32.00
2018-03-17T18:29:25.995Z,36.20
2018-03-17T18:31:55.525Z,35.80
2018-03-17T18:34:28.132Z,36.50
2018-03-17T18:36:57.922Z,36.60
2018-03-17T18:39:27.828Z,35.10
2018-03-17T18:41:57.439Z,33.50
2018-03-17T18:44:28.641Z,29.70
2018-03-17T18:46:58.184Z,31.60
2018-03-17T18:49:27.923Z,30.10
2018-03-17T18:51:57.530Z,33.60
2018-03-17T18:54:27.157Z,33.60
2018-03-17T18:56:56.728Z,32.40
2018-03-17T18:59:26.155Z,30.00
2018-03-17T19:01:55.639Z,29.30
2018-03-17T19:04:25.302Z,26.20
2018-03-17T19:06:54.825Z,27.20
2018-03-17T19:09:24.242Z,27.00
2018-03-17T19:11:53.777Z,25.40
2018-03-17T19:14:23.250Z,27.40
2018-03-17T19:16:52.780Z,29.30
2018-03-17T19:19:22.325Z,29.60
2018-03-17T19:21:52.505Z,29.10
2018-03-17T19:24:22.070Z,29.10
2018-03-17T19:26:51.510Z,29.30
2018-03-17T19:29:21.013Z,29.00
2018-03-17T19:31:50.567Z,28.40
2018-03-17T19:34:20.803Z,25.00
2018-03-17T19:36:50.257Z,24.90
2018-03-17T19:39:19.766Z,24.80
2018-03-17T19:41:49.256Z,26.00
2018-03-17T19:44:18.792Z,25.60
2018-03-17T19:46:48.368Z,27.10
2018-03-17T19:49:17.886Z,26.40
2018-03-17T19:51:47.418Z,26.70
2018-03-17T19:54:16.845Z,26.50
2018-03-17T19:56:46.549Z,24.00
2018-03-17T20:06:10.628Z,25.00
2018-03-17T20:08:40.942Z,25.50
2018-03-17T20:11:10.323Z,25.90
2018-03-17T20:13:39.710Z,26.70
2018-03-17T20:16:09.146Z,27.20
2018-03-17T20:18:38.501Z,27.90
2018-03-17T20:21:07.867Z,27.60
2018-03-17T20:23:37.270Z,27.70
2018-03-17T20:29:36.933Z,29.30
2018-03-17T20:32:07.871Z,31.20
2018-03-17T20:34:37.326Z,31.40
2018-03-17T20:37:06.924Z,30.60
2018-03-17T20:39:36.386Z,30.00
2018-03-17T20:42:06.048Z,30.50
2018-03-17T20:44:35.518Z,31.70
2018-03-17T20:47:05.024Z,32.50
2018-03-17T20:49:35.211Z,33.10
2018-03-17T20:52:08.498Z,33.10
2018-03-17T20:54:40.524Z,33.90
2018-03-17T20:57:15.385Z,35.10
2018-03-17T20:59:45.588Z,46.90
2018-03-17T21:02:15.070Z,51.60
2018-03-17T21:04:44.487Z,52.70
2018-03-17T21:07:13.836Z,54.60
2018-03-17T21:09:43.307Z,56.30
2018-03-17T21:12:12.879Z,57.20
2018-03-17T21:14:42.271Z,57.70
2018-03-17T21:17:14.807Z,57.40
2018-03-17T21:19:50.677Z,56.90
2018-03-17T21:22:20.188Z,56.80
2018-03-17T21:24:49.865Z,56.70
2018-03-17T21:27:19.215Z,57.70
2018-03-17T21:29:57.296Z,58.90
2018-03-17T21:32:27.608Z,59.80
2018-03-17T21:35:03.305Z,60.90
2018-03-17T21:37:37.927Z,59.60
2018-03-17T21:40:12.969Z,58.40
2018-03-17T21:42:43.782Z,58.30
2018-03-17T21:45:13.478Z,57.60
2018-03-17T21:47:42.979Z,58.40
2018-03-17T21:50:12.813Z,59.40
2018-03-17T21:52:51.320Z,60.50
2018-03-17T21:55:27.998Z,60.50
2018-03-17T21:57:57.706Z,61.20
2018-03-17T22:00:42.013Z,61.00
2018-03-17T22:03:23.670Z,61.80
2018-03-17T22:06:03.172Z,62.30
2018-03-17T22:08:39.262Z,62.60
2018-03-17T22:14:40.097Z,61.20
2018-03-17T22:17:09.629Z,61.00
2018-03-17T22:19:41.704Z,62.60
2018-03-17T22:22:11.184Z,62.60
2018-03-17T22:24:40.650Z,62.60
2018-03-17T22:27:10.175Z,63.60
2018-03-17T22:29:39.658Z,64.80
2018-03-17T22:32:10.176Z,65.40
2018-03-17T22:34:39.771Z,65.50
2018-03-17T22:37:09.219Z,66.80
2018-03-17T22:39:38.746Z,67.90
2018-03-17T22:42:08.570Z,68.60
2018-03-17T22:44:40.495Z,69.30
2018-03-17T22:47:11.107Z,69.20
2018-03-17T22:49:43.623Z,71.00
2018-03-17T22:52:13.202Z,72.50
2018-03-17T22:54:42.812Z,72.80
2018-03-17T22:57:13.739Z,74.40
2018-03-17T22:59:43.250Z,74.30
2018-03-17T23:02:12.780Z,74.50
2018-03-17T23:04:42.256Z,74.30
2018-03-17T23:07:11.826Z,74.50
2018-03-17T23:09:42.798Z,75.00
2018-03-17T23:12:13.383Z,75.30
2018-03-17T23:14:44.239Z,76.50
2018-03-17T23:17:13.886Z,76.50
2018-03-17T23:19:43.307Z,77.30
2018-03-17T23:22:12.754Z,79.00
2018-03-17T23:24:43.142Z,79.80
2018-03-17T23:27:12.598Z,79.50
2018-03-17T23:29:44.011Z,79.90
2018-03-17T23:32:14.268Z,80.30
2018-03-17T23:34:43.829Z,80.30
2018-03-17T23:37:50.955Z,80.50
2018-03-17T23:40:20.697Z,81.70
2018-03-17T23:42:52.332Z,82.40
2018-03-17T23:45:23.777Z,83.70
2018-03-17T23:47:53.461Z,84.30
2018-03-17T23:50:25.039Z,84.80
2018-03-17T23:56:25.976Z,85.70
2018-03-17T23:58:55.650Z,86.00
